Xi'an Xianyang International

Airport
ICAO code: 
ZLXY
Summary
ICAO Region: 
APAC
Territory: 
Location: 
Xi'an, Shaanxi,
Coordinates: 
Aerial View: 
34° 26' 48.998" N, 108° 45' 5" E
Metar
Observation
ZLXY 040700Z 20002MPS 140V280 8000 NSC 12/M07 Q1026 NOSIG
Station
Xian/Xianyang
Date/Time
2021-12-04 07:00:00
Wind direction
200°
Lowest cloud amount
nil significant cloud
Temperature
12°C
Dew point
-7°C
Humidity
25%
QNH
1026 hPa
Weather condition
n/a

Xi'an Xianyang International Airport (IATA: XIY) serves Xi'an, Shaanxi, People's Republic of China.

Runways

Designator Length Width Surface Rops
5/23 3000 45 CON Yes/Yes
Airport map: 
Aerial View: 

SKYbrary Partners:

Safety knowledge contributed by: